createdAt,value
2022-12-20T00:01:24.499Z,7.44
2022-12-20T00:03:52.992Z,7.43
2022-12-20T00:06:20.815Z,7.52
2022-12-20T00:08:52.570Z,7.58
2022-12-20T00:11:19.164Z,7.61
2022-12-20T00:13:47.240Z,7.65
2022-12-20T00:16:17.033Z,7.64
2022-12-20T00:18:43.985Z,7.72
2022-12-20T00:21:13.281Z,7.75
2022-12-20T00:23:40.700Z,7.81
2022-12-20T00:26:13.275Z,7.78
2022-12-20T00:28:41.608Z,7.93
2022-12-20T00:31:13.462Z,7.93
2022-12-20T00:33:41.189Z,7.93
2022-12-20T00:36:09.198Z,7.84
2022-12-20T00:38:36.188Z,7.84
2022-12-20T00:41:13.099Z,7.80
2022-12-20T00:43:40.708Z,7.84
2022-12-20T00:46:08.731Z,7.94
2022-12-20T00:48:36.268Z,7.83
2022-12-20T00:51:06.618Z,7.80
2022-12-20T00:53:34.236Z,7.66
2022-12-20T00:56:01.558Z,7.83
2022-12-20T00:58:28.688Z,7.81
2022-12-20T01:00:56.936Z,7.85
2022-12-20T01:03:25.171Z,7.84
2022-12-20T01:05:57.414Z,7.96
2022-12-20T01:08:25.687Z,7.92
2022-12-20T01:11:06.654Z,7.83
2022-12-20T01:13:35.551Z,7.98
2022-12-20T01:16:13.433Z,7.86
2022-12-20T01:18:40.170Z,7.88
2022-12-20T01:21:10.394Z,8.03
2022-12-20T01:23:37.191Z,8.01
2022-12-20T01:26:06.081Z,8.04
2022-12-20T01:28:33.196Z,8.10
2022-12-20T01:31:00.245Z,8.15
2022-12-20T01:33:26.976Z,8.15
2022-12-20T01:36:03.873Z,8.11
2022-12-20T01:38:30.790Z,8.04
2022-12-20T01:40:58.110Z,8.11
2022-12-20T01:43:26.792Z,8.22
2022-12-20T01:45:53.548Z,8.15
2022-12-20T01:48:26.362Z,8.23
2022-12-20T01:50:53.750Z,8.24
2022-12-20T01:53:24.608Z,8.30
2022-12-20T01:55:51.254Z,8.34
2022-12-20T01:58:19.939Z,8.39
2022-12-20T02:00:47.577Z,8.34
2022-12-20T02:03:15.481Z,8.37
2022-12-20T02:05:45.696Z,8.27
2022-12-20T02:08:17.031Z,8.28
2022-12-20T02:11:06.426Z,8.24
2022-12-20T02:14:05.514Z,8.23
2022-12-20T02:16:43.417Z,8.14
2022-12-20T02:19:50.759Z,8.25
2022-12-20T02:22:44.925Z,8.19
2022-12-20T02:25:20.618Z,8.10
2022-12-20T02:28:07.081Z,8.10
2022-12-20T02:30:38.219Z,8.09
2022-12-20T02:33:08.688Z,8.05
2022-12-20T02:35:37.609Z,8.06
2022-12-20T02:38:25.063Z,8.13
2022-12-20T02:40:56.915Z,8.02
2022-12-20T02:43:45.753Z,7.91
2022-12-20T02:46:13.660Z,7.99
2022-12-20T02:48:41.313Z,7.91
2022-12-20T02:51:10.268Z,7.86
2022-12-20T02:53:38.317Z,7.89
2022-12-20T02:56:16.936Z,7.70
2022-12-20T02:58:59.061Z,7.54
2022-12-20T03:01:33.716Z,7.68
2022-12-20T03:04:01.478Z,7.66
2022-12-20T03:06:28.297Z,7.67
2022-12-20T03:08:54.992Z,7.67
2022-12-20T03:11:21.540Z,7.72
2022-12-20T03:13:48.196Z,7.84
2022-12-20T03:16:14.797Z,7.90
2022-12-20T03:18:41.403Z,7.96
2022-12-20T03:21:08.079Z,8.04
2022-12-20T03:23:34.738Z,7.91
2022-12-20T03:26:01.609Z,7.88
2022-12-20T03:28:28.232Z,7.94
2022-12-20T03:30:54.995Z,7.94
2022-12-20T03:33:21.711Z,8.00
2022-12-20T03:35:48.711Z,8.09
2022-12-20T03:38:15.391Z,8.13
2022-12-20T03:40:42.044Z,8.11
2022-12-20T03:43:08.684Z,8.12
2022-12-20T03:45:35.299Z,8.15
2022-12-20T03:48:01.867Z,8.12
2022-12-20T03:50:28.527Z,7.96
2022-12-20T03:52:55.177Z,8.20
2022-12-20T03:55:21.793Z,8.33
2022-12-20T03:57:48.313Z,8.41
2022-12-20T04:00:15.746Z,8.51
2022-12-20T04:02:42.433Z,8.60
2022-12-20T04:05:09.314Z,8.68
2022-12-20T04:07:35.995Z,8.74
2022-12-20T04:10:02.614Z,8.77
2022-12-20T04:12:29.323Z,8.93
2022-12-20T04:14:56.106Z,8.90
2022-12-20T04:17:22.744Z,8.93
2022-12-20T04:19:49.367Z,9.11
2022-12-20T04:22:15.938Z,9.08
2022-12-20T04:24:42.574Z,9.17
2022-12-20T04:27:09.167Z,9.05
2022-12-20T04:29:37.027Z,9.04
2022-12-20T04:32:03.904Z,9.03
2022-12-20T04:34:30.544Z,9.02
2022-12-20T04:36:57.156Z,9.04
2022-12-20T04:39:23.900Z,8.99
2022-12-20T04:41:50.543Z,8.97
2022-12-20T04:44:17.195Z,8.95
2022-12-20T04:46:43.832Z,8.92
2022-12-20T04:49:10.449Z,8.97
2022-12-20T04:51:37.087Z,8.98
2022-12-20T04:54:03.782Z,8.89
2022-12-20T04:56:30.462Z,9.04
2022-12-20T04:58:58.940Z,8.93
2022-12-20T05:01:26.455Z,8.90
2022-12-20T05:03:53.857Z,8.81
2022-12-20T05:06:20.703Z,8.73
2022-12-20T05:08:48.013Z,8.80
2022-12-20T05:11:15.012Z,8.78
2022-12-20T05:13:41.866Z,8.73
2022-12-20T05:16:08.723Z,8.66
2022-12-20T05:18:36.065Z,8.61
2022-12-20T05:21:21.837Z,8.51
2022-12-20T05:24:07.781Z,8.47
2022-12-20T05:26:37.239Z,8.41
2022-12-20T05:29:04.990Z,8.56
2022-12-20T05:31:32.058Z,8.94
2022-12-20T05:33:58.780Z,9.16
2022-12-20T05:36:25.421Z,9.04
2022-12-20T05:38:53.029Z,8.91
2022-12-20T05:41:22.064Z,8.92
2022-12-20T05:43:48.709Z,8.81
2022-12-20T05:46:15.538Z,8.87
2022-12-20T05:48:42.340Z,8.84
2022-12-20T05:51:10.228Z,8.85
2022-12-20T05:53:36.882Z,8.91
2022-12-20T05:56:03.951Z,8.91
2022-12-20T05:58:30.622Z,8.97
2022-12-20T06:00:57.537Z,8.81
2022-12-20T06:03:24.250Z,8.63
2022-12-20T06:05:50.879Z,8.57
2022-12-20T06:08:17.527Z,8.63
2022-12-20T06:10:44.359Z,8.64
2022-12-20T06:13:11.425Z,8.73
2022-12-20T06:15:38.619Z,8.86
2022-12-20T06:18:06.230Z,8.94
2022-12-20T06:20:34.557Z,9.07
2022-12-20T06:23:01.819Z,9.14
2022-12-20T06:25:28.940Z,9.10
2022-12-20T06:27:55.609Z,9.20
2022-12-20T06:30:23.953Z,9.29
2022-12-20T06:32:55.635Z,9.29
2022-12-20T06:35:22.195Z,9.13
2022-12-20T06:37:48.849Z,9.06
2022-12-20T06:40:15.632Z,8.90
2022-12-20T06:42:42.415Z,8.85
2022-12-20T06:45:09.739Z,8.82
2022-12-20T06:47:36.758Z,8.77
2022-12-20T06:50:05.980Z,8.70
2022-12-20T06:52:32.676Z,8.59
2022-12-20T06:54:59.223Z,8.60
2022-12-20T06:57:25.867Z,8.55
2022-12-20T06:59:52.536Z,8.48
2022-12-20T07:02:19.409Z,8.38
2022-12-20T07:04:46.124Z,8.50
2022-12-20T07:07:13.975Z,8.81
2022-12-20T07:09:42.893Z,9.06
2022-12-20T07:12:10.432Z,9.13
2022-12-20T07:14:37.069Z,9.02
2022-12-20T07:17:04.859Z,9.04
2022-12-20T07:19:31.647Z,9.13
2022-12-20T07:21:59.315Z,9.09
2022-12-20T07:24:26.201Z,9.34
2022-12-20T07:26:52.835Z,9.23
2022-12-20T07:29:19.597Z,9.53
2022-12-20T07:31:46.539Z,9.70
2022-12-20T07:34:13.316Z,9.73
2022-12-20T07:36:40.039Z,9.80
2022-12-20T07:39:06.733Z,9.92
2022-12-20T07:41:33.279Z,9.77
2022-12-20T07:43:59.933Z,9.73
2022-12-20T07:46:27.030Z,9.73
2022-12-20T07:48:54.988Z,9.66
2022-12-20T07:51:31.803Z,9.61
2022-12-20T07:54:04.151Z,9.63
2022-12-20T07:56:41.072Z,9.54
2022-12-20T07:59:12.101Z,9.63
2022-12-20T08:01:40.420Z,9.63
2022-12-20T08:04:13.166Z,9.89
2022-12-20T08:06:41.080Z,10.02
2022-12-20T08:09:12.882Z,10.18
2022-12-20T08:11:41.398Z,10.36
2022-12-20T08:14:08.529Z,10.28
2022-12-20T08:16:35.424Z,10.39
2022-12-20T08:19:02.060Z,10.50
2022-12-20T08:21:29.320Z,10.46
2022-12-20T08:23:56.806Z,10.41
2022-12-20T08:26:23.641Z,10.54
2022-12-20T08:28:50.391Z,10.49
2022-12-20T08:31:17.184Z,10.42
2022-12-20T08:33:43.871Z,10.33
2022-12-20T08:36:12.736Z,10.38
2022-12-20T08:38:40.124Z,10.28
2022-12-20T08:41:11.163Z,10.06
2022-12-20T08:43:39.332Z,9.87
2022-12-20T08:46:07.354Z,9.76
2022-12-20T08:48:34.540Z,9.53
2022-12-20T08:51:04.029Z,9.33
2022-12-20T08:53:31.601Z,9.30
2022-12-20T08:56:27.900Z,9.27
2022-12-20T08:58:54.619Z,9.21
2022-12-20T09:01:22.979Z,9.17
2022-12-20T09:03:50.152Z,9.17
2022-12-20T09:06:22.926Z,9.22
2022-12-20T09:08:50.402Z,9.34
2022-12-20T09:11:20.917Z,9.41
2022-12-20T09:13:50.391Z,9.77
2022-12-20T09:16:21.527Z,10.49
2022-12-20T09:18:52.847Z,10.72
2022-12-20T09:21:20.307Z,10.91
2022-12-20T09:23:48.500Z,11.10
2022-12-20T09:26:16.537Z,11.29
2022-12-20T09:28:44.323Z,11.18
2022-12-20T09:31:13.665Z,11.16
2022-12-20T09:33:40.535Z,11.29
2022-12-20T09:36:11.256Z,11.44
2022-12-20T09:38:37.886Z,11.57
2022-12-20T09:41:07.292Z,11.54
2022-12-20T09:43:34.905Z,11.50
2022-12-20T09:46:04.145Z,11.50
2022-12-20T09:48:35.736Z,11.55
2022-12-20T09:51:10.998Z,11.49
2022-12-20T09:53:56.318Z,11.50
2022-12-20T09:56:28.144Z,11.58
2022-12-20T09:59:04.209Z,11.50
2022-12-20T10:01:38.804Z,11.56
2022-12-20T10:04:12.764Z,11.53
2022-12-20T10:07:17.124Z,11.50
2022-12-20T10:10:05.178Z,11.41
2022-12-20T10:13:03.695Z,11.39
2022-12-20T10:15:33.231Z,11.40
2022-12-20T10:18:15.840Z,11.41
2022-12-20T10:21:17.542Z,11.44
2022-12-20T10:23:53.668Z,11.48
2022-12-20T10:26:22.709Z,11.49
2022-12-20T10:28:54.087Z,11.47
2022-12-20T10:31:22.013Z,11.25
2022-12-20T10:33:48.816Z,11.31
2022-12-20T10:36:19.762Z,11.21
2022-12-20T10:38:50.824Z,11.19
2022-12-20T10:41:25.675Z,11.21
2022-12-20T10:43:56.412Z,11.15
2022-12-20T10:46:24.553Z,11.20
2022-12-20T10:48:51.764Z,11.17
2022-12-20T10:51:21.974Z,11.23
2022-12-20T10:54:03.262Z,11.17
2022-12-20T10:56:31.542Z,11.29
2022-12-20T10:59:01.711Z,11.26
2022-12-20T11:01:35.792Z,11.31
2022-12-20T11:04:06.036Z,11.40
2022-12-20T11:06:38.464Z,11.45
2022-12-20T11:09:35.233Z,11.63
2022-12-20T11:12:05.214Z,11.76
2022-12-20T11:14:39.288Z,11.78
2022-12-20T11:17:20.262Z,11.81
2022-12-20T11:20:13.749Z,11.86
2022-12-20T11:23:09.249Z,11.83
2022-12-20T11:25:52.208Z,11.44
2022-12-20T11:28:46.646Z,11.41
2022-12-20T11:31:24.561Z,11.22
2022-12-20T11:33:54.301Z,11.20
2022-12-20T11:36:42.595Z,11.15
2022-12-20T11:39:40.597Z,10.86
2022-12-20T11:42:26.298Z,10.79
2022-12-20T11:45:10.358Z,10.48
2022-12-20T11:47:39.959Z,10.43
2022-12-20T11:50:27.944Z,10.35
2022-12-20T11:53:00.390Z,10.36
2022-12-20T11:55:32.377Z,10.41
2022-12-20T11:58:20.745Z,10.45
2022-12-20T12:01:16.797Z,10.56
2022-12-20T12:04:04.410Z,10.72
2022-12-20T12:06:37.066Z,10.95
2022-12-20T12:09:28.071Z,11.00
2022-12-20T12:12:08.523Z,11.16
2022-12-20T12:14:56.272Z,11.29
2022-12-20T12:17:48.186Z,11.27
2022-12-20T12:20:39.035Z,11.32
2022-12-20T12:23:42.949Z,11.35
2022-12-20T12:26:20.523Z,11.34
2022-12-20T12:28:52.863Z,11.35
2022-12-20T12:31:27.079Z,11.29
2022-12-20T12:34:06.736Z,11.17
2022-12-20T12:36:50.775Z,11.18
2022-12-20T12:39:40.073Z,11.09
2022-12-20T12:42:34.134Z,10.90
2022-12-20T12:45:05.845Z,10.85
2022-12-20T12:47:46.097Z,10.79
2022-12-20T12:50:28.291Z,10.73
2022-12-20T12:53:18.843Z,10.76
2022-12-20T12:55:50.929Z,10.75
2022-12-20T12:58:23.555Z,10.81
2022-12-20T13:00:50.373Z,10.71
2022-12-20T13:03:55.278Z,10.84
2022-12-20T13:06:30.963Z,10.88
2022-12-20T13:09:00.586Z,10.84
2022-12-20T13:11:29.906Z,10.97
2022-12-20T13:14:17.916Z,11.00
2022-12-20T13:19:37.334Z,11.07
2022-12-20T13:22:13.049Z,11.10
2022-12-20T13:24:48.652Z,11.06
2022-12-20T13:27:41.253Z,11.13
2022-12-20T13:30:07.826Z,11.16
2022-12-20T13:32:49.504Z,11.09
2022-12-20T13:35:25.268Z,11.12
2022-12-20T13:37:56.145Z,11.09
2022-12-20T13:40:44.373Z,10.99
2022-12-20T13:43:26.265Z,10.90
2022-12-20T13:46:10.421Z,10.88
2022-12-20T13:48:52.174Z,10.87
2022-12-20T13:51:24.582Z,10.87
2022-12-20T13:54:00.863Z,10.88
2022-12-20T13:56:27.322Z,10.82
2022-12-20T13:58:55.661Z,10.80
2022-12-20T14:01:24.818Z,10.77
2022-12-20T14:03:53.350Z,10.69
2022-12-20T14:06:26.910Z,10.59
2022-12-20T14:08:54.709Z,10.50
2022-12-20T14:11:26.812Z,10.56
2022-12-20T14:14:00.469Z,10.38
2022-12-20T14:16:29.694Z,10.34
2022-12-20T14:19:13.217Z,10.38
2022-12-20T14:21:46.049Z,10.45
2022-12-20T14:24:21.116Z,10.36
2022-12-20T14:26:52.079Z,10.39
2022-12-20T14:29:24.005Z,10.46
2022-12-20T14:31:51.163Z,10.53
2022-12-20T14:34:29.542Z,10.57
2022-12-20T14:37:30.222Z,10.56
2022-12-20T14:40:04.664Z,10.59
2022-12-20T14:42:36.832Z,10.59
2022-12-20T14:45:09.486Z,10.67
2022-12-20T14:47:37.780Z,10.69
2022-12-20T14:50:17.325Z,10.62
2022-12-20T14:52:44.759Z,10.63
2022-12-20T14:55:25.593Z,10.78
2022-12-20T14:57:55.038Z,10.59
2022-12-20T15:00:30.819Z,10.42
2022-12-20T15:03:00.888Z,10.42
2022-12-20T15:05:34.457Z,10.37
2022-12-20T15:08:17.097Z,10.39
2022-12-20T15:10:54.394Z,10.45
2022-12-20T15:13:25.389Z,10.47
2022-12-20T15:15:52.105Z,10.45
2022-12-20T15:18:21.541Z,10.39
2022-12-20T15:21:05.569Z,10.29
2022-12-20T15:23:34.566Z,10.25
2022-12-20T15:26:01.109Z,10.22
2022-12-20T15:28:28.013Z,10.06
2022-12-20T15:30:55.411Z,9.87
2022-12-20T15:33:34.600Z,9.75
2022-12-20T15:36:01.132Z,9.58
2022-12-20T15:38:54.963Z,9.55
2022-12-20T15:41:20.314Z,9.83
2022-12-20T15:43:48.360Z,9.90
2022-12-20T15:46:14.935Z,10.08
2022-12-20T15:48:41.682Z,10.34
2022-12-20T15:51:37.008Z,10.42
2022-12-20T15:54:17.266Z,10.38
2022-12-20T15:56:43.769Z,10.48
2022-12-20T15:59:57.011Z,10.41
2022-12-20T16:01:59.547Z,10.59
2022-12-20T16:04:28.638Z,10.62
2022-12-20T16:06:55.505Z,10.63
2022-12-20T16:09:25.667Z,10.60
2022-12-20T16:11:52.568Z,10.59
2022-12-20T16:14:21.368Z,10.56
2022-12-20T16:16:50.186Z,10.66
2022-12-20T16:19:17.383Z,10.63
2022-12-20T16:21:47.872Z,10.71
2022-12-20T16:24:17.159Z,10.66
2022-12-20T16:26:44.033Z,10.63
2022-12-20T16:29:10.583Z,10.57
2022-12-20T16:31:44.495Z,10.70
2022-12-20T16:34:16.957Z,10.66
2022-12-20T16:36:44.337Z,10.60
2022-12-20T16:39:11.347Z,10.47
2022-12-20T16:41:41.225Z,10.41
2022-12-20T16:44:13.386Z,10.34
2022-12-20T16:46:40.149Z,10.54
2022-12-20T16:49:06.943Z,10.45
2022-12-20T16:51:43.591Z,10.37
2022-12-20T16:54:19.995Z,10.44
2022-12-20T16:56:47.868Z,10.26
2022-12-20T16:59:23.353Z,10.20
2022-12-20T17:01:53.235Z,10.16
2022-12-20T17:04:21.368Z,10.14
2022-12-20T17:06:48.426Z,10.14
2022-12-20T17:09:18.401Z,10.04
2022-12-20T17:11:45.439Z,9.99
2022-12-20T17:14:13.690Z,9.99
2022-12-20T17:16:41.230Z,9.94
2022-12-20T17:19:07.924Z,9.89
2022-12-20T17:24:23.619Z,9.62
2022-12-20T17:26:50.689Z,9.53
2022-12-20T17:29:17.977Z,9.49
2022-12-20T17:31:46.602Z,9.43
2022-12-20T17:34:20.291Z,9.38
2022-12-20T17:36:48.784Z,9.33
2022-12-20T17:39:15.908Z,9.40
2022-12-20T17:41:44.078Z,9.39
2022-12-20T17:44:25.240Z,9.47
2022-12-20T17:46:53.026Z,9.37
2022-12-20T17:49:20.360Z,9.45
2022-12-20T17:51:47.128Z,9.25
2022-12-20T17:54:18.776Z,9.10
2022-12-20T17:56:46.007Z,9.31
2022-12-20T17:59:14.023Z,9.44
2022-12-20T18:01:41.754Z,9.35
2022-12-20T18:04:11.254Z,9.27
2022-12-20T18:06:39.566Z,9.29
2022-12-20T18:09:12.170Z,9.30
2022-12-20T18:11:38.883Z,9.38
2022-12-20T18:14:05.560Z,9.32
2022-12-20T18:16:35.235Z,9.08
2022-12-20T18:22:49.613Z,8.70
2022-12-20T18:25:18.262Z,8.66
2022-12-20T18:27:44.930Z,8.69
2022-12-20T18:30:13.152Z,8.64
2022-12-20T18:32:41.049Z,8.62
2022-12-20T18:35:08.360Z,8.74
2022-12-20T18:37:34.964Z,8.75
2022-12-20T18:40:01.449Z,8.79
2022-12-20T18:42:27.988Z,8.87
2022-12-20T18:44:54.606Z,8.89
2022-12-20T18:47:21.174Z,9.02
2022-12-20T18:49:47.880Z,8.98
2022-12-20T18:52:14.419Z,8.90
2022-12-20T18:54:41.145Z,9.05
2022-12-20T18:57:07.837Z,9.02
2022-12-20T18:59:34.918Z,8.83
2022-12-20T19:02:01.959Z,8.88
2022-12-20T19:04:28.610Z,8.87
2022-12-20T19:06:55.296Z,8.77
2022-12-20T19:09:22.484Z,8.75
2022-12-20T19:11:56.219Z,8.91
2022-12-20T19:14:23.247Z,8.88
2022-12-20T19:16:50.301Z,8.97
2022-12-20T19:19:17.863Z,9.00
2022-12-20T19:21:45.083Z,9.04
2022-12-20T19:24:11.977Z,9.22
2022-12-20T19:26:39.689Z,9.23
2022-12-20T19:29:06.871Z,9.20
2022-12-20T19:31:36.686Z,9.25
2022-12-20T19:34:07.386Z,9.26
2022-12-20T19:36:41.878Z,9.15
2022-12-20T19:39:13.591Z,9.11
2022-12-20T19:41:40.922Z,9.07
2022-12-20T19:44:07.433Z,9.08
2022-12-20T19:46:33.974Z,9.05
2022-12-20T19:49:00.697Z,9.10
2022-12-20T19:51:28.455Z,9.08
2022-12-20T19:53:56.997Z,9.03
2022-12-20T19:56:26.896Z,9.08
2022-12-20T19:58:54.903Z,9.07
2022-12-20T20:01:25.756Z,8.94
2022-12-20T20:03:56.491Z,9.01
2022-12-20T20:06:24.329Z,9.15
2022-12-20T20:08:51.295Z,9.17
2022-12-20T20:11:19.289Z,9.23
2022-12-20T20:13:46.476Z,9.30
2022-12-20T20:16:17.006Z,9.36
2022-12-20T20:18:49.196Z,9.37
2022-12-20T20:21:19.845Z,9.39
2022-12-20T20:23:46.654Z,9.39
2022-12-20T20:26:15.846Z,9.37
2022-12-20T20:28:45.074Z,9.39
2022-12-20T20:31:13.959Z,9.35
2022-12-20T20:33:40.930Z,9.37
2022-12-20T20:36:08.065Z,9.22
2022-12-20T20:38:35.252Z,9.10
2022-12-20T20:41:01.930Z,9.15
2022-12-20T20:43:29.992Z,9.16
2022-12-20T20:45:56.675Z,9.18
2022-12-20T20:48:23.250Z,9.12
2022-12-20T20:50:50.439Z,9.16
2022-12-20T20:53:16.952Z,9.13
2022-12-20T20:55:43.619Z,9.06
2022-12-20T20:58:10.377Z,9.07
2022-12-20T21:00:37.042Z,9.04
2022-12-20T21:03:04.171Z,9.17
2022-12-20T21:08:19.431Z,9.17
2022-12-20T21:10:46.202Z,9.14
2022-12-20T21:13:12.646Z,9.19
2022-12-20T21:15:40.876Z,9.17
2022-12-20T21:18:07.405Z,9.19
2022-12-20T21:20:34.119Z,9.14
2022-12-20T21:23:01.616Z,9.16
2022-12-20T21:25:28.484Z,9.01
2022-12-20T21:27:56.537Z,9.04
2022-12-20T21:30:23.773Z,8.95
2022-12-20T21:32:50.791Z,8.99
2022-12-20T21:35:17.446Z,9.00
2022-12-20T21:37:43.955Z,8.94
2022-12-20T21:40:10.986Z,8.89
2022-12-20T21:42:37.850Z,8.87
2022-12-20T21:45:04.924Z,8.87
2022-12-20T21:47:31.527Z,8.85
2022-12-20T21:49:58.073Z,8.82
2022-12-20T21:52:24.667Z,8.97
2022-12-20T21:54:51.278Z,9.07
2022-12-20T21:57:17.960Z,8.97
2022-12-20T21:59:44.478Z,8.87
2022-12-20T22:02:12.482Z,8.93
2022-12-20T22:04:39.378Z,8.89
2022-12-20T22:07:06.097Z,8.77
2022-12-20T22:09:32.651Z,8.66
2022-12-20T22:11:59.156Z,8.56
2022-12-20T22:14:26.084Z,8.43
2022-12-20T22:16:54.831Z,8.34
2022-12-20T22:19:21.528Z,8.16
2022-12-20T22:21:52.343Z,8.07
2022-12-20T22:24:24.051Z,8.04
2022-12-20T22:26:50.573Z,7.84
2022-12-20T22:29:17.097Z,7.80
2022-12-20T22:31:43.833Z,7.62
2022-12-20T22:34:10.454Z,7.66
2022-12-20T22:36:37.270Z,7.54
2022-12-20T22:39:04.168Z,7.53
2022-12-20T22:41:34.987Z,7.47
2022-12-20T22:44:02.493Z,7.34
2022-12-20T22:46:29.975Z,7.32
2022-12-20T22:48:58.005Z,7.17
2022-12-20T22:51:27.265Z,7.09
2022-12-20T22:53:54.314Z,7.21
2022-12-20T22:56:21.806Z,7.15
2022-12-20T22:58:48.848Z,7.14
2022-12-20T23:01:17.392Z,7.21
2022-12-20T23:03:44.644Z,7.17
2022-12-20T23:06:17.224Z,7.21
2022-12-20T23:08:44.282Z,7.21
2022-12-20T23:11:35.823Z,7.20
2022-12-20T23:14:22.439Z,7.23
2022-12-20T23:16:49.381Z,7.31
2022-12-20T23:19:15.855Z,7.31
2022-12-20T23:22:01.077Z,7.42
2022-12-20T23:24:27.733Z,7.42
2022-12-20T23:26:54.267Z,7.41
2022-12-20T23:29:20.992Z,7.38
2022-12-20T23:31:47.623Z,7.52
2022-12-20T23:34:14.335Z,7.44
2022-12-20T23:36:40.954Z,7.50
2022-12-20T23:39:08.124Z,7.36
2022-12-20T23:41:34.915Z,7.40
2022-12-20T23:44:03.984Z,7.38
2022-12-20T23:46:30.544Z,7.44
2022-12-20T23:48:57.192Z,7.49
2022-12-20T23:51:23.761Z,7.48
2022-12-20T23:53:53.506Z,7.46
2022-12-20T23:56:21.707Z,7.49
2022-12-20T23:58:54.387Z,7.50
